Time;durP1;ratioP1;P1;durP2;ratioP2;P2;SDS_P1;SDS_P2;PMS_P1;PMS_P2;Temp;Humidity;BMP_temperature;BMP_pressure;BME280_temperature;BME280_humidity;BME280_pressure;Samples;Min_cycle;Max_cycle;Signal;HPM_P1;HPM_P2
2023/12/21 00:02:12;;;;;;;58.55;32.20;;;;;;;1.46;63.86;93254.38;5009913;28;20037;-78
2023/12/21 00:04:38;;;;;;;72.15;40.05;;;;;;;1.08;65.08;93261.06;5010688;28;20029;-78
2023/12/21 00:07:03;;;;;;;58.50;34.20;;;;;;;1.13;66.19;93260.28;5008607;28;20029;-77
2023/12/21 00:09:29;;;;;;;59.88;34.25;;;;;;;1.29;64.53;93245.25;5013627;28;20113;-78
2023/12/21 00:11:56;;;;;;;61.10;33.40;;;;;;;1.53;63.64;93257.47;5010554;28;20045;-79
2023/12/21 00:14:23;;;;;;;48.78;24.17;;;;;;;1.39;63.33;93240.78;5011796;28;20508;-78
2023/12/21 00:16:48;;;;;;;55.47;27.25;;;;;;;1.55;63.75;93260.63;5009405;28;20034;-78
2023/12/21 00:19:14;;;;;;;51.58;25.35;;;;;;;1.35;64.13;93242.38;5009256;28;20483;-78
2023/12/21 00:21:39;;;;;;;40.67;22.02;;;;;;;1.71;63.20;93263.16;5014667;28;20127;-78
2023/12/21 00:24:05;;;;;;;44.80;21.83;;;;;;;1.76;62.65;93257.88;5011084;28;20452;-79
2023/12/21 00:26:30;;;;;;;32.00;19.88;;;;;;;1.81;62.28;93257.84;5011848;28;20041;-79
2023/12/21 00:28:55;;;;;;;31.60;19.58;;;;;;;1.91;62.28;93268.31;5009113;28;20801;-78
2023/12/21 00:31:21;;;;;;;34.63;19.17;;;;;;;1.83;61.71;93247.88;5010532;28;20046;-80
2023/12/21 00:33:46;;;;;;;30.83;18.35;;;;;;;1.96;61.21;93276.91;5013385;28;20060;-79
2023/12/21 00:36:15;;;;;;;37.10;20.88;;;;;;;1.77;62.07;93275.16;4996351;28;20559;-79
2023/12/21 00:38:41;;;;;;;31.08;17.65;;;;;;;1.74;63.24;93275.72;5006081;28;20432;-78
2023/12/21 00:41:06;;;;;;;38.88;20.33;;;;;;;1.41;63.09;93241.28;5008976;28;20124;-79
2023/12/21 00:43:32;;;;;;;25.83;15.75;;;;;;;1.82;63.40;93301.34;5008846;28;20045;-79
2023/12/21 00:46:01;;;;;;;25.70;15.05;;;;;;;1.86;63.54;93289.28;5008120;28;21039;-79
2023/12/21 00:48:27;;;;;;;25.35;15.45;;;;;;;1.89;63.13;93294.78;5006830;28;20087;-78
2023/12/21 00:50:52;;;;;;;23.75;14.13;;;;;;;1.83;63.22;93295.84;5013800;28;20041;-78
2023/12/21 00:53:19;;;;;;;25.75;16.60;;;;;;;1.88;63.66;93298.47;5003467;28;20025;-78
2023/12/21 00:55:53;;;;;;;25.30;14.35;;;;;;;1.54;65.27;93303.59;5008792;28;20176;-78
2023/12/21 00:58:19;;;;;;;26.15;16.85;;;;;;;1.63;65.71;93295.94;5011529;28;20428;-78
2023/12/21 01:00:48;;;;;;;26.77;15.63;;;;;;;1.59;65.96;93295.72;5011568;28;20112;-78
2023/12/21 01:03:13;;;;;;;27.33;17.98;;;;;;;1.86;65.66;93312.88;5010138;28;20594;-79
2023/12/21 01:05:40;;;;;;;26.05;16.50;;;;;;;1.95;65.10;93298.19;5016554;28;20683;-77
2023/12/21 01:08:07;;;;;;;29.15;17.92;;;;;;;2.13;64.47;93289.66;5016410;28;20395;-78
2023/12/21 01:10:33;;;;;;;22.52;16.52;;;;;;;2.14;63.78;93275.50;5016469;28;20029;-78
2023/12/21 01:13:01;;;;;;;23.48;15.65;;;;;;;2.12;62.68;93277.59;5014357;28;20538;-78
2023/12/21 01:15:30;;;;;;;21.98;17.40;;;;;;;2.06;64.04;93310.94;5011803;28;20033;-78
2023/12/21 01:17:55;;;;;;;27.05;18.27;;;;;;;2.11;63.57;93307.50;5008391;28;20457;-79
2023/12/21 01:20:21;;;;;;;27.63;16.85;;;;;;;2.09;62.57;93293.88;5012999;28;20042;-80
2023/12/21 01:22:46;;;;;;;25.83;15.80;;;;;;;2.20;62.27;93287.53;5013438;28;20033;-78
2023/12/21 01:25:11;;;;;;;23.73;16.73;;;;;;;2.24;62.11;93291.16;5013074;28;20491;-79
2023/12/21 01:27:37;;;;;;;28.75;18.45;;;;;;;2.20;61.63;93289.34;5016188;28;20013;-80
2023/12/21 01:30:04;;;;;;;22.88;16.55;;;;;;;2.20;61.75;93289.34;5012468;28;20124;-79
2023/12/21 01:32:29;;;;;;;25.98;17.08;;;;;;;2.13;61.49;93273.91;5010599;28;20041;-78
2023/12/21 01:34:54;;;;;;;27.83;17.20;;;;;;;2.22;60.92;93288.03;5014132;28;20524;-78
2023/12/21 01:37:20;;;;;;;23.98;16.30;;;;;;;2.20;61.25;93279.66;5017613;28;20071;-78
2023/12/21 01:39:46;;;;;;;29.52;17.90;;;;;;;2.03;61.60;93281.84;5011787;28;20067;-79
2023/12/21 01:42:11;;;;;;;23.77;16.45;;;;;;;1.98;61.79;93281.88;5012006;28;20067;-79
2023/12/21 01:44:36;;;;;;;30.95;16.90;;;;;;;1.89;62.10;93249.44;5015335;28;20030;-78
2023/12/21 01:47:02;;;;;;;26.70;15.82;;;;;;;1.88;62.63;93271.47;5013464;28;20136;-79
2023/12/21 01:49:28;;;;;;;22.42;14.60;;;;;;;1.51;63.78;93253.56;5015863;28;20030;-80
2023/12/21 01:51:53;;;;;;;27.45;19.13;;;;;;;1.29;66.20;93266.22;5014521;28;20395;-78
2023/12/21 01:54:19;;;;;;;26.50;17.08;;;;;;;1.21;67.18;93267.56;5016200;28;20033;-78
2023/12/21 01:56:45;;;;;;;12.25;7.93;;;;;;;1.29;67.81;93256.53;5010124;28;20080;-78
2023/12/21 01:59:10;;;;;;;8.85;6.05;;;;;;;1.49;67.89;93238.09;5014714;28;20049;-77
2023/12/21 02:01:39;;;;;;;12.07;6.40;;;;;;;1.83;67.12;93253.09;5018085;28;20042;-78
2023/12/21 02:04:05;;;;;;;10.45;5.75;;;;;;;2.04;67.50;93246.72;5011612;28;20102;-79
2023/12/21 02:06:30;;;;;;;8.52;5.30;;;;;;;2.27;67.36;93253.88;5005623;28;20112;-79
2023/12/21 02:08:56;;;;;;;8.20;4.97;;;;;;;2.24;67.82;93249.19;5014882;28;20504;-79
2023/12/21 02:11:21;;;;;;;35.58;20.17;;;;;;;2.29;67.67;93241.28;5005632;28;20159;-79
2023/12/21 02:13:46;;;;;;;45.10;29.38;;;;;;;1.73;66.81;93250.53;5004216;28;20579;-78
2023/12/21 02:16:31;;;;;;;43.00;28.65;;;;;;;1.07;69.39;93258.72;5011523;28;20601;-78
2023/12/21 02:18:57;;;;;;;52.42;30.15;;;;;;;1.17;69.38;93261.31;5008164;28;20256;-79
2023/12/21 02:21:23;;;;;;;29.75;17.90;;;;;;;1.14;69.52;93252.13;5011692;28;20081;-79
2023/12/21 02:23:50;;;;;;;34.50;22.92;;;;;;;1.20;69.72;93261.56;5008255;28;20557;-77
2023/12/21 02:26:18;;;;;;;44.65;28.38;;;;;;;1.01;69.88;93273.66;5014969;28;20149;-78
2023/12/21 02:28:50;;;;;;;55.35;33.17;;;;;;;0.77;71.10;93291.00;5009886;28;20551;-77
2023/12/21 02:31:15;;;;;;;60.35;33.40;;;;;;;0.15;73.06;93273.00;5014723;28;20096;-76
2023/12/21 02:33:40;;;;;;;71.70;38.72;;;;;;;-0.28;75.19;93298.56;5007342;28;20120;-79
2023/12/21 02:36:07;;;;;;;66.55;37.58;;;;;;;-0.18;75.59;93277.66;5011297;28;20526;-79
2023/12/21 02:38:33;;;;;;;62.40;34.88;;;;;;;0.31;73.90;93259.66;5012695;28;20049;-79
2023/12/21 02:40:59;;;;;;;55.03;34.85;;;;;;;0.79;72.46;93276.59;5014688;28;20121;-79
2023/12/21 02:43:24;;;;;;;53.85;34.53;;;;;;;1.05;70.46;93273.91;5010801;28;20048;-78
2023/12/21 02:45:50;;;;;;;54.63;33.35;;;;;;;1.27;68.59;93279.63;5013113;28;20029;-79
2023/12/21 02:48:15;;;;;;;54.33;33.78;;;;;;;1.34;67.80;93287.16;5011377;28;20033;-78
2023/12/21 02:50:41;;;;;;;49.45;30.90;;;;;;;1.41;68.34;93291.09;5004456;28;20072;-79
2023/12/21 02:53:06;;;;;;;53.42;33.20;;;;;;;1.46;67.45;93269.31;5007829;28;20603;-79
2023/12/21 02:55:34;;;;;;;48.78;32.08;;;;;;;1.70;67.42;93285.97;5014897;28;20041;-78
2023/12/21 02:58:00;;;;;;;51.17;31.50;;;;;;;1.63;66.11;93265.28;5012600;28;20026;-79
2023/12/21 03:00:25;;;;;;;49.13;31.23;;;;;;;1.62;65.21;93247.97;5012995;28;20029;-78
2023/12/21 03:02:51;;;;;;;49.83;31.45;;;;;;;1.94;64.71;93286.13;5010612;28;20044;-78
2023/12/21 03:05:16;;;;;;;53.90;32.15;;;;;;;1.59;65.85;93264.25;5011710;28;20044;-78
2023/12/21 03:07:42;;;;;;;52.60;33.67;;;;;;;1.19;67.17;93269.66;5014045;28;20124;-77
2023/12/21 03:10:08;;;;;;;49.88;31.63;;;;;;;1.37;67.41;93281.41;5011478;28;20027;-77
2023/12/21 03:12:33;;;;;;;50.08;32.50;;;;;;;1.41;66.50;93272.75;5014423;28;20025;-78
2023/12/21 03:14:58;;;;;;;36.17;25.23;;;;;;;1.22;68.10;93279.63;5012295;28;20044;-77
2023/12/21 03:17:24;;;;;;;31.95;21.85;;;;;;;1.39;68.34;93282.69;5013777;28;20033;-78
2023/12/21 03:19:50;;;;;;;25.20;17.25;;;;;;;1.25;69.96;93289.56;5009912;28;20045;-78
2023/12/21 03:22:16;;;;;;;25.50;17.20;;;;;;;1.32;70.10;93295.31;5011891;28;20658;-77
2023/12/21 03:24:41;;;;;;;28.73;18.40;;;;;;;1.22;70.58;93269.16;5013724;28;20476;-78
2023/12/21 03:27:09;;;;;;;25.77;17.40;;;;;;;1.14;70.70;93277.53;5014402;28;20026;-78
2023/12/21 03:29:35;;;;;;;24.83;17.10;;;;;;;1.12;71.41;93284.91;5011201;28;20084;-77
2023/12/21 03:32:00;;;;;;;28.40;16.70;;;;;;;0.99;71.69;93280.19;5011909;28;20172;-79
2023/12/21 03:34:28;;;;;;;22.90;16.45;;;;;;;1.13;71.64;93302.94;5011939;28;20041;-78
2023/12/21 03:36:54;;;;;;;25.95;16.55;;;;;;;1.03;71.10;93273.41;5014020;28;20026;-78
2023/12/21 03:39:19;;;;;;;24.42;15.07;;;;;;;1.05;71.56;93289.63;5013079;28;20142;-77
2023/12/21 03:41:45;;;;;;;23.17;15.13;;;;;;;1.09;71.61;93304.53;5010705;28;20044;-78
2023/12/21 03:44:10;;;;;;;23.30;14.93;;;;;;;0.99;71.79;93306.38;5012427;28;20041;-77
2023/12/21 03:46:36;;;;;;;23.80;15.68;;;;;;;0.80;72.61;93316.63;5014141;28;20037;-77
2023/12/21 03:49:01;;;;;;;23.98;15.50;;;;;;;0.93;72.63;93317.94;5011181;28;20021;-78
2023/12/21 03:51:26;;;;;;;23.70;15.20;;;;;;;0.68;73.11;93290.75;5012057;28;20025;-77
2023/12/21 03:53:52;;;;;;;23.63;15.55;;;;;;;1.01;72.45;93309.53;5013813;28;20084;-79
2023/12/21 03:56:17;;;;;;;23.77;15.73;;;;;;;0.93;72.21;93289.16;5010806;28;20495;-78
2023/12/21 03:58:42;;;;;;;22.98;13.20;;;;;;;0.86;72.84;93312.97;5012447;28;20025;-77
2023/12/21 04:01:08;;;;;;;17.48;12.73;;;;;;;0.91;72.07;93291.22;5009237;28;20079;-77
2023/12/21 04:03:33;;;;;;;18.70;13.68;;;;;;;0.82;72.12;93284.97;5012628;28;20181;-78
2023/12/21 04:05:59;;;;;;;19.88;13.85;;;;;;;0.76;72.35;93308.53;5011634;28;20500;-77
2023/12/21 04:08:24;;;;;;;20.85;13.23;;;;;;;0.77;72.81;93310.13;5012971;28;20044;-77
2023/12/21 04:10:50;;;;;;;18.65;13.05;;;;;;;0.73;73.05;93327.41;5011344;28;20033;-78
2023/12/21 04:13:15;;;;;;;16.63;12.60;;;;;;;0.86;72.33;93315.59;5011211;28;20071;-77
2023/12/21 04:15:40;;;;;;;16.92;11.57;;;;;;;0.70;72.53;93304.34;5013527;28;20029;-78
2023/12/21 04:18:06;;;;;;;17.58;11.35;;;;;;;0.88;72.04;93310.09;5010000;28;20041;-78
2023/12/21 04:20:31;;;;;;;18.05;12.20;;;;;;;0.80;72.08;93320.03;5010441;28;20037;-78
2023/12/21 04:22:57;;;;;;;19.25;13.30;;;;;;;0.65;72.55;93291.28;5009088;28;20069;-77
2023/12/21 04:25:22;;;;;;;27.55;12.90;;;;;;;0.82;72.53;93311.16;5012961;28;20033;-78
2023/12/21 04:27:48;;;;;;;19.58;13.20;;;;;;;0.80;72.50;93309.56;5008811;28;20028;-77
2023/12/21 04:30:14;;;;;;;17.90;12.55;;;;;;;0.84;71.47;93285.50;5011288;28;20575;-77
2023/12/21 04:32:40;;;;;;;18.80;11.30;;;;;;;0.64;71.92;93294.94;5012344;28;20051;-78
2023/12/21 04:35:08;;;;;;;16.92;10.68;;;;;;;0.67;72.42;93299.66;5007412;28;20459;-77
2023/12/21 04:37:36;;;;;;;17.25;11.57;;;;;;;0.89;71.93;93322.16;5011401;28;20037;-78
2023/12/21 04:40:02;;;;;;;16.48;10.38;;;;;;;0.84;71.36;93309.06;5014175;28;20018;-79
2023/12/21 04:42:30;;;;;;;17.33;11.13;;;;;;;0.85;71.40;93315.84;5013847;28;20487;-78
2023/12/21 04:44:55;;;;;;;17.90;13.35;;;;;;;0.75;71.33;93306.97;5016007;28;20084;-77
2023/12/21 04:47:20;;;;;;;17.08;11.38;;;;;;;0.80;71.63;93314.03;5014323;28;20034;-79
2023/12/21 04:49:46;;;;;;;15.75;11.07;;;;;;;1.00;70.83;93331.53;5014159;28;20041;-76
2023/12/21 04:52:12;;;;;;;15.10;10.13;;;;;;;1.05;70.38;93326.28;5012295;28;20690;-78
2023/12/21 04:54:39;;;;;;;12.60;8.65;;;;;;;0.78;70.96;93295.97;5010410;28;20024;-77
2023/12/21 04:57:04;;;;;;;15.23;9.70;;;;;;;1.02;70.49;93319.75;5014945;28;20042;-77
2023/12/21 04:59:29;;;;;;;13.25;9.82;;;;;;;1.09;69.84;93319.47;5011257;28;20775;-77
2023/12/21 05:01:56;;;;;;;18.55;10.90;;;;;;;1.03;70.03;93333.63;5017240;28;20080;-78
2023/12/21 05:04:21;;;;;;;13.18;9.15;;;;;;;0.92;69.89;93321.59;5011688;28;20169;-79
2023/12/21 05:06:47;;;;;;;16.50;10.63;;;;;;;0.88;69.79;93321.34;5017038;28;20537;-77
2023/12/21 05:09:12;;;;;;;14.55;9.70;;;;;;;0.97;70.34;93330.25;5014950;28;20229;-77
2023/12/21 05:11:38;;;;;;;14.75;10.27;;;;;;;0.97;70.03;93326.84;5015606;28;20033;-77
2023/12/21 05:14:03;;;;;;;14.32;10.05;;;;;;;0.95;70.15;93327.09;5016229;28;20046;-79
2023/12/21 05:16:29;;;;;;;12.55;9.25;;;;;;;0.82;70.08;93327.66;5012060;28;20056;-78
2023/12/21 05:18:54;;;;;;;15.02;9.15;;;;;;;0.90;70.47;93348.03;5017344;28;20489;-78
2023/12/21 05:21:19;;;;;;;15.18;9.80;;;;;;;0.91;70.33;93338.34;5015356;28;20037;-77
2023/12/21 05:23:46;;;;;;;16.45;9.90;;;;;;;0.77;70.79;93344.16;5014917;28;20254;-79
2023/12/21 05:26:13;;;;;;;14.20;9.93;;;;;;;0.96;70.15;93349.63;5014709;28;20057;-77
2023/12/21 05:28:39;;;;;;;13.35;9.13;;;;;;;0.90;69.98;93339.41;4999466;28;20088;-78
2023/12/21 05:31:06;;;;;;;14.05;9.43;;;;;;;0.73;70.18;93330.00;5010011;28;20498;-78
2023/12/21 05:33:31;;;;;;;12.63;8.43;;;;;;;0.86;69.96;93336.53;5016211;28;20061;-78
2023/12/21 05:35:57;;;;;;;14.23;9.80;;;;;;;0.87;69.40;93345.19;5015870;28;20120;-77
2023/12/21 05:38:22;;;;;;;12.52;8.57;;;;;;;0.56;70.38;93329.50;5012841;28;20033;-78
2023/12/21 05:40:48;;;;;;;13.43;9.32;;;;;;;0.62;70.25;93320.59;5012890;28;20550;-77
2023/12/21 05:43:13;;;;;;;15.07;9.52;;;;;;;0.57;69.70;93315.38;5015933;28;20049;-78
2023/12/21 05:45:38;;;;;;;15.45;10.18;;;;;;;0.76;69.39;93324.25;5009611;28;20024;-77
2023/12/21 05:48:04;;;;;;;14.50;9.55;;;;;;;0.64;69.41;93330.81;5013534;28;20629;-78
2023/12/21 05:50:29;;;;;;;14.77;9.25;;;;;;;0.54;69.06;93304.66;5009489;28;20114;-78
2023/12/21 05:52:54;;;;;;;15.40;9.88;;;;;;;0.74;68.68;93328.19;5013566;28;20072;-78
2023/12/21 05:55:21;;;;;;;13.25;8.57;;;;;;;0.70;68.16;93299.13;5014511;28;20771;-79
2023/12/21 05:57:47;;;;;;;12.30;9.07;;;;;;;0.84;68.41;93325.53;5010307;28;20080;-79
2023/12/21 06:00:13;;;;;;;12.20;9.30;;;;;;;0.81;68.47;93297.28;5016983;28;20431;-78
2023/12/21 06:02:38;;;;;;;16.25;10.38;;;;;;;0.81;68.11;93305.13;5012262;28;20421;-77
2023/12/21 06:05:04;;;;;;;13.50;9.73;;;;;;;0.89;68.20;93311.69;5016200;28;20484;-77
2023/12/21 06:07:29;;;;;;;17.48;11.68;;;;;;;1.03;67.64;93307.44;5013266;28;20049;-77
2023/12/21 06:09:55;;;;;;;15.88;11.05;;;;;;;0.95;68.04;93315.81;5014640;28;20116;-76
2023/12/21 06:12:21;;;;;;;16.27;10.93;;;;;;;0.96;67.98;93312.16;5011629;28;20083;-79
2023/12/21 06:14:47;;;;;;;16.10;10.43;;;;;;;1.08;67.62;93323.91;5010813;28;20060;-78
2023/12/21 06:17:14;;;;;;;17.40;12.05;;;;;;;1.12;67.50;93311.88;5016049;28;20116;-79
2023/12/21 06:19:43;;;;;;;19.48;12.95;;;;;;;1.24;67.15;93319.41;5019282;28;20045;-78
2023/12/21 06:22:08;;;;;;;16.23;11.30;;;;;;;1.29;66.80;93322.03;5006584;28;20691;-77
2023/12/21 06:24:34;;;;;;;19.45;13.07;;;;;;;1.12;66.43;93290.13;5018312;28;20029;-77
2023/12/21 06:26:59;;;;;;;17.15;12.20;;;;;;;1.40;66.21;93323.56;5004579;28;20075;-76
2023/12/21 06:29:25;;;;;;;16.50;11.52;;;;;;;1.26;66.17;93319.94;5011452;28;20088;-77
2023/12/21 06:31:50;;;;;;;31.02;15.27;;;;;;;1.13;66.21;93310.03;5013875;28;20736;-77
2023/12/21 06:34:16;;;;;;;28.77;14.98;;;;;;;1.27;65.75;93329.38;4999629;28;20052;-78
2023/12/21 06:36:41;;;;;;;16.90;9.32;;;;;;;1.46;65.15;93324.34;5008596;28;20036;-77
2023/12/21 06:39:08;;;;;;;13.32;10.25;;;;;;;1.52;64.83;93326.66;5005860;28;20251;-76
2023/12/21 06:41:33;;;;;;;17.45;10.75;;;;;;;1.33;65.44;93325.69;5008722;28;20041;-76
2023/12/21 06:43:59;;;;;;;17.70;12.85;;;;;;;1.39;66.13;93327.22;5000477;28;20034;-78
2023/12/21 06:46:26;;;;;;;19.98;12.40;;;;;;;1.58;65.75;93340.53;5007781;28;20037;-78
2023/12/21 06:48:51;;;;;;;16.50;11.10;;;;;;;1.58;65.37;93328.22;5005693;28;20035;-78
2023/12/21 06:51:17;;;;;;;19.00;12.02;;;;;;;1.67;64.35;93329.22;5005671;28;20667;-77
2023/12/21 06:53:42;;;;;;;16.42;11.93;;;;;;;1.61;64.27;93334.75;4996169;28;20049;-77
2023/12/21 06:56:09;;;;;;;17.95;11.73;;;;;;;1.81;64.13;93339.13;4999780;28;20140;-77
2023/12/21 06:58:34;;;;;;;16.83;12.35;;;;;;;1.93;63.81;93340.41;5007462;28;20884;-78
2023/12/21 07:01:00;;;;;;;16.63;11.52;;;;;;;2.12;62.81;93340.56;5003519;28;20037;-79
2023/12/21 07:03:26;;;;;;;18.88;11.45;;;;;;;2.02;62.26;93338.78;5000817;28;20479;-78
2023/12/21 07:05:53;;;;;;;15.57;10.32;;;;;;;1.99;62.36;93333.28;4997992;28;20508;-76
2023/12/21 07:08:21;;;;;;;16.02;10.18;;;;;;;2.16;61.43;93340.81;5005848;28;20624;-78
2023/12/21 07:10:48;;;;;;;9.93;7.03;;;;;;;1.95;60.30;93334.91;5012660;28;20037;-76
2023/12/21 07:13:13;;;;;;;11.77;7.18;;;;;;;1.71;60.51;93341.81;5005145;28;20340;-78
2023/12/21 07:15:39;;;;;;;14.18;7.88;;;;;;;1.85;60.09;93350.66;5002976;28;20487;-77
2023/12/21 07:18:08;;;;;;;12.95;8.48;;;;;;;1.52;61.06;93321.41;5001432;28;20496;-78
2023/12/21 07:20:35;;;;;;;14.30;8.75;;;;;;;1.76;61.36;93334.69;5007165;28;20622;-76
2023/12/21 07:23:00;;;;;;;13.40;9.43;;;;;;;1.87;61.42;93353.78;5000897;28;20356;-78
2023/12/21 07:25:26;;;;;;;16.92;10.57;;;;;;;1.80;62.08;93351.47;5005676;28;20041;-77
2023/12/21 07:27:51;;;;;;;17.02;10.75;;;;;;;1.81;62.70;93329.44;5003043;28;20027;-77
2023/12/21 07:30:17;;;;;;;17.92;12.70;;;;;;;1.82;63.13;93357.19;5006308;28;20493;-76
2023/12/21 07:32:42;;;;;;;18.70;12.80;;;;;;;1.77;63.86;93343.31;5002091;28;20045;-76
2023/12/21 07:35:08;;;;;;;15.32;11.68;;;;;;;1.78;63.47;93335.19;4997814;28;20049;-76
2023/12/21 07:37:33;;;;;;;18.02;12.80;;;;;;;1.68;63.05;93314.28;5004252;28;20041;-77
2023/12/21 07:39:59;;;;;;;17.73;10.77;;;;;;;1.64;62.97;93324.53;5000503;28;20562;-77
2023/12/21 07:42:24;;;;;;;13.88;10.35;;;;;;;1.80;62.83;93330.47;4996053;28;20033;-78
2023/12/21 07:44:52;;;;;;;14.40;10.73;;;;;;;1.94;62.40;93344.59;5001261;28;20496;-77
2023/12/21 07:47:18;;;;;;;12.82;8.70;;;;;;;1.91;60.44;93354.84;5004319;28;20480;-76
2023/12/21 07:49:43;;;;;;;12.23;6.93;;;;;;;1.55;60.63;93328.75;5004004;28;20049;-78
2023/12/21 07:52:09;;;;;;;9.63;6.68;;;;;;;1.75;59.73;93366.41;5005890;28;20488;-76
2023/12/21 07:54:34;;;;;;;10.98;7.13;;;;;;;1.98;58.79;93368.44;5006192;28;20033;-76
2023/12/21 07:57:00;;;;;;;10.65;7.05;;;;;;;1.90;58.78;93354.06;5004051;28;20343;-76
2023/12/21 07:59:25;;;;;;;8.68;6.60;;;;;;;2.05;57.66;93350.56;5002991;28;20557;-78
2023/12/21 08:01:50;;;;;;;9.68;7.03;;;;;;;1.73;58.81;93347.53;5001082;28;20133;-79
2023/12/21 08:04:16;;;;;;;10.70;7.35;;;;;;;1.78;59.37;93360.63;4997011;28;20053;-77
2023/12/21 08:06:41;;;;;;;10.25;6.85;;;;;;;1.63;59.51;93359.63;5003136;28;20399;-78
2023/12/21 08:09:07;;;;;;;10.85;7.57;;;;;;;1.56;59.82;93353.91;4999362;28;20056;-78
2023/12/21 08:11:36;;;;;;;11.02;7.65;;;;;;;1.80;59.81;93369.03;5004185;28;20033;-77
2023/12/21 08:14:02;;;;;;;14.48;8.65;;;;;;;1.92;59.80;93372.91;5001245;28;21021;-77
2023/12/21 08:16:28;;;;;;;13.27;8.43;;;;;;;1.90;60.25;93374.25;5006480;28;20041;-76
2023/12/21 08:18:54;;;;;;;14.25;8.68;;;;;;;1.57;60.16;93318.00;5004933;28;20090;-76
2023/12/21 08:21:20;;;;;;;14.43;9.80;;;;;;;1.83;60.59;93381.59;5017463;28;20048;-76
2023/12/21 08:23:47;;;;;;;11.10;8.32;;;;;;;1.80;60.37;93384.75;5001875;28;20061;-76
2023/12/21 08:26:13;;;;;;;14.15;9.32;;;;;;;2.02;59.93;93385.19;5007394;28;20052;-77
2023/12/21 08:28:39;;;;;;;11.75;8.02;;;;;;;1.93;59.42;93369.25;5007481;28;20029;-78
2023/12/21 08:31:11;;;;;;;10.10;7.22;;;;;;;2.00;58.50;93368.97;5007907;28;20049;-77
2023/12/21 08:33:36;;;;;;;11.05;7.90;;;;;;;1.83;59.42;93360.59;5006675;28;20094;-78
2023/12/21 08:36:03;;;;;;;10.18;7.93;;;;;;;1.89;60.14;93367.44;5007672;28;20468;-78
2023/12/21 08:38:29;;;;;;;11.13;8.10;;;;;;;1.91;60.13;93362.72;5017979;28;20425;-78
2023/12/21 08:40:57;;;;;;;12.50;8.32;;;;;;;1.96;59.30;93357.44;5008935;28;20055;-76
2023/12/21 08:43:22;;;;;;;10.38;7.43;;;;;;;1.91;58.56;93339.88;5009365;28;20034;-79
2023/12/21 08:45:48;;;;;;;10.75;7.13;;;;;;;1.94;59.06;93349.06;5007705;28;20405;-77
2023/12/21 08:48:13;;;;;;;11.68;7.20;;;;;;;2.01;59.02;93339.81;5004972;28;20044;-77
2023/12/21 08:50:39;;;;;;;12.35;8.35;;;;;;;2.13;58.92;93351.84;5005827;28;20034;-78
2023/12/21 08:53:04;;;;;;;9.18;7.20;;;;;;;2.19;57.06;93346.28;5005403;28;20067;-77
2023/12/21 08:55:31;;;;;;;9.50;6.47;;;;;;;2.12;57.09;93350.25;5000387;28;20758;-77
2023/12/21 08:57:59;;;;;;;8.60;7.25;;;;;;;2.18;57.40;93351.81;5004899;28;20173;-77
2023/12/21 09:00:25;;;;;;;10.82;6.70;;;;;;;2.18;57.63;93328.97;5007557;28;20528;-76
2023/12/21 09:02:50;;;;;;;16.05;6.60;;;;;;;2.17;57.53;93335.28;5007459;28;20204;-77
2023/12/21 09:05:16;;;;;;;11.23;8.65;;;;;;;2.19;57.58;93351.53;5005719;28;20048;-78
2023/12/21 09:07:44;;;;;;;11.73;7.57;;;;;;;2.10;58.00;93305.97;5002261;28;20931;-78
2023/12/21 09:10:10;;;;;;;13.25;8.23;;;;;;;2.29;58.21;93311.34;5005184;28;20041;-79
2023/12/21 09:12:35;;;;;;;12.88;7.63;;;;;;;2.58;57.51;93316.63;5007414;28;20618;-79
2023/12/21 09:15:05;;;;;;;13.02;8.15;;;;;;;2.47;57.72;93300.94;5001951;28;20120;-76
2023/12/21 09:17:32;;;;;;;12.80;8.73;;;;;;;2.61;57.64;93313.44;5000969;28;20839;-77
2023/12/21 09:19:57;;;;;;;12.32;7.70;;;;;;;2.69;56.95;93324.16;4997234;28;20519;-79
2023/12/21 09:22:23;;;;;;;13.10;8.13;;;;;;;2.75;56.58;93322.25;5009286;28;20614;-79
2023/12/21 09:24:54;;;;;;;8.38;6.10;;;;;;;2.64;55.74;93310.28;5004480;28;20032;-76
2023/12/21 09:27:19;;;;;;;9.18;6.35;;;;;;;2.82;55.72;93312.22;5000741;28;20511;-79
2023/12/21 09:29:46;;;;;;;8.98;6.22;;;;;;;2.77;55.88;93309.63;5005860;28;20272;-79
2023/12/21 09:32:11;;;;;;;10.40;7.68;;;;;;;2.83;55.97;93305.91;5008162;28;20328;-78
2023/12/21 09:34:38;;;;;;;9.13;6.90;;;;;;;2.83;56.16;93308.53;5004892;28;20539;-79
2023/12/21 09:37:04;;;;;;;13.10;7.47;;;;;;;2.62;56.63;93275.63;5006077;28;20941;-79
2023/12/21 09:39:30;;;;;;;12.27;7.32;;;;;;;2.61;57.16;93289.81;5023109;28;20021;-78
2023/12/21 09:42:08;;;;;;;10.23;7.80;;;;;;;2.84;57.07;93296.97;5002110;28;20084;-76
2023/12/21 09:44:37;;;;;;;16.05;7.53;;;;;;;2.98;56.25;93300.50;5017522;28;20029;-79
2023/12/21 09:47:06;;;;;;;11.20;8.23;;;;;;;2.90;56.81;93278.25;5002846;28;20144;-77
2023/12/21 09:49:39;;;;;;;11.32;7.38;;;;;;;3.01;56.61;93273.66;5007630;28;20044;-80
2023/12/21 09:52:11;;;;;;;9.10;6.10;;;;;;;2.90;55.83;93257.22;5007165;28;20030;-77
2023/12/21 09:54:41;;;;;;;12.38;7.13;;;;;;;2.91;56.10;93253.56;5005674;28;20029;-79
2023/12/21 09:57:08;;;;;;;8.90;6.78;;;;;;;3.17;55.46;93256.69;5004893;28;20067;-79
2023/12/21 09:59:34;;;;;;;11.13;7.50;;;;;;;3.22;55.40;93246.13;5006489;28;20045;-78
2023/12/21 10:02:00;;;;;;;11.48;7.70;;;;;;;3.19;56.15;93249.28;5002654;28;20068;-80
2023/12/21 10:04:26;;;;;;;15.23;8.98;;;;;;;3.20;56.65;93260.59;5005054;28;20042;-78
2023/12/21 10:06:52;;;;;;;11.95;8.05;;;;;;;3.32;55.64;93253.91;5003897;28;20479;-79
2023/12/21 10:09:18;;;;;;;14.40;8.40;;;;;;;3.37;55.48;93245.94;5005769;28;20029;-78
2023/12/21 10:11:44;;;;;;;9.93;7.88;;;;;;;3.49;55.37;93227.13;5006488;28;20041;-78
2023/12/21 10:14:19;;;;;;;15.38;8.77;;;;;;;3.63;54.99;93230.59;5007124;28;20064;-77
2023/12/21 10:16:44;;;;;;;11.43;7.38;;;;;;;3.59;54.96;93226.19;4991312;28;20041;-80
2023/12/21 10:19:11;;;;;;;16.85;9.48;;;;;;;3.54;55.28;93219.16;5008401;28;20026;-79
2023/12/21 10:21:39;;;;;;;11.82;7.60;;;;;;;3.55;55.25;93207.59;5002798;28;20361;-80
2023/12/21 10:24:05;;;;;;;14.27;8.98;;;;;;;3.58;55.54;93198.34;5007092;28;20570;-79
2023/12/21 10:26:31;;;;;;;16.35;9.77;;;;;;;3.40;55.63;93166.50;5004818;28;20088;-77
2023/12/21 10:29:04;;;;;;;15.95;9.57;;;;;;;3.75;55.56;93217.84;5004124;28;20041;-76
2023/12/21 10:31:33;;;;;;;12.65;9.00;;;;;;;3.77;54.84;93205.16;5004353;28;20505;-78
2023/12/21 10:33:59;;;;;;;16.27;8.13;;;;;;;3.70;54.94;93191.59;4999330;28;20034;-79
2023/12/21 10:36:26;;;;;;;13.52;8.45;;;;;;;3.74;54.37;93183.91;4992317;28;20514;-78
2023/12/21 10:38:52;;;;;;;11.95;7.45;;;;;;;3.66;54.69;93153.00;5003229;28;20162;-76
2023/12/21 10:41:18;;;;;;;13.18;8.45;;;;;;;3.70;55.27;93170.56;4999838;28;20096;-80
2023/12/21 10:43:56;;;;;;;11.70;8.27;;;;;;;3.73;55.22;93174.47;5006895;28;20030;-76
2023/12/21 10:46:22;;;;;;;12.35;7.85;;;;;;;3.81;54.95;93163.31;4996444;28;20041;-79
2023/12/21 10:48:48;;;;;;;11.23;6.88;;;;;;;3.68;54.75;93171.91;5004272;28;20040;-79
2023/12/21 10:51:19;;;;;;;12.02;7.18;;;;;;;3.86;54.26;93162.44;4999427;28;20615;-78
2023/12/21 10:54:14;;;;;;;12.93;7.22;;;;;;;3.82;54.68;93154.34;5005601;28;20192;-78
2023/12/21 10:56:44;;;;;;;20.60;14.50;;;;;;;4.17;53.43;93159.03;5002079;28;20037;-79
2023/12/21 10:59:16;;;;;;;10.63;7.40;;;;;;;4.33;52.66;93151.69;5004663;28;20088;-77
2023/12/21 11:01:43;;;;;;;101.15;61.30;;;;;;;4.49;52.40;93139.06;5021724;28;20053;-78
2023/12/21 11:04:10;;;;;;;55.20;47.17;;;;;;;4.58;51.38;93132.03;5003756;28;20582;-80
2023/12/21 11:06:37;;;;;;;81.25;57.60;;;;;;;4.53;51.17;93129.50;5004188;28;20541;-78
2023/12/21 11:09:06;;;;;;;27.67;22.45;;;;;;;4.53;51.29;93127.66;4999584;28;20733;-79
2023/12/21 11:11:34;;;;;;;13.02;7.65;;;;;;;4.46;50.67;93118.56;5002871;28;20041;-79
2023/12/21 11:13:59;;;;;;;12.13;8.75;;;;;;;4.46;50.47;93129.09;5002959;28;20041;-79
2023/12/21 11:16:29;;;;;;;12.07;6.57;;;;;;;4.41;51.32;93137.06;4986940;28;20052;-79
2023/12/21 11:19:00;;;;;;;9.73;5.72;;;;;;;4.24;51.65;93125.25;5010988;28;20034;-79
2023/12/21 11:21:28;;;;;;;6.88;5.25;;;;;;;4.32;51.63;93126.44;5007755;28;20037;-78
2023/12/21 11:23:53;;;;;;;9.52;6.60;;;;;;;4.23;51.56;93104.47;5010639;28;20072;-78
2023/12/21 11:26:21;;;;;;;9.70;6.35;;;;;;;4.48;51.73;93111.94;4996504;28;20041;-79